createdAt,value
2023-01-03T00:02:24.538Z,38.40
2023-01-03T00:04:59.583Z,38.50
2023-01-03T00:07:34.849Z,38.50
2023-01-03T00:10:11.021Z,38.60
2023-01-03T00:12:46.032Z,38.60
2023-01-03T00:15:20.944Z,38.60
2023-01-03T00:17:56.232Z,38.70
2023-01-03T00:20:32.562Z,38.70
2023-01-03T00:23:07.506Z,38.70
2023-01-03T00:25:42.409Z,38.80
2023-01-03T00:28:17.356Z,38.90
2023-01-03T00:30:52.259Z,38.70
2023-01-03T00:33:27.166Z,38.70
2023-01-03T00:36:07.314Z,38.80
2023-01-03T00:38:42.285Z,38.70
2023-01-03T00:41:19.281Z,38.80
2023-01-03T00:43:54.203Z,38.60
2023-01-03T00:46:29.231Z,38.40
2023-01-03T00:49:05.604Z,38.90
2023-01-03T00:51:42.250Z,38.50
2023-01-03T00:54:17.355Z,38.60
2023-01-03T00:56:53.153Z,38.50
2023-01-03T00:59:28.018Z,38.50
2023-01-03T01:02:03.028Z,38.40
2023-01-03T01:04:38.037Z,38.40
2023-01-03T01:07:12.884Z,38.40
2023-01-03T01:09:47.862Z,38.20
2023-01-03T01:12:22.760Z,38.40
2023-01-03T01:14:57.646Z,38.20
2023-01-03T01:17:32.653Z,38.10
2023-01-03T01:20:08.726Z,38.20
2023-01-03T01:22:43.621Z,38.10
2023-01-03T01:25:18.495Z,38.20
2023-01-03T01:27:53.343Z,38.20
2023-01-03T01:30:28.211Z,38.30
2023-01-03T01:33:04.576Z,38.20
2023-01-03T01:35:39.834Z,38.20
2023-01-03T01:38:14.731Z,38.30
2023-01-03T01:40:49.750Z,38.40
2023-01-03T01:43:43.789Z,38.30
2023-01-03T01:46:32.672Z,38.40
2023-01-03T01:49:17.307Z,38.50
2023-01-03T01:51:52.336Z,38.40
2023-01-03T01:54:27.241Z,38.50
2023-01-03T01:57:02.320Z,38.60
2023-01-03T01:59:37.225Z,38.60
2023-01-03T02:02:13.764Z,38.60
2023-01-03T02:04:52.491Z,38.40
2023-01-03T02:07:27.398Z,38.80
2023-01-03T02:10:02.389Z,38.80
2023-01-03T02:13:18.698Z,38.80
2023-01-03T02:16:29.292Z,38.70
2023-01-03T02:19:34.918Z,38.60
2023-01-03T02:22:40.611Z,38.60
2023-01-03T02:25:34.103Z,38.70
2023-01-03T02:28:45.707Z,38.60
2023-01-03T02:31:51.432Z,38.60
2023-01-03T02:34:37.932Z,38.70
2023-01-03T02:37:34.084Z,38.80
2023-01-03T02:40:17.566Z,38.80
2023-01-03T02:43:11.803Z,38.80
2023-01-03T02:46:16.333Z,38.80
2023-01-03T02:48:57.060Z,38.80
2023-01-03T02:51:50.939Z,38.80
2023-01-03T02:54:38.871Z,38.80
2023-01-03T02:57:20.430Z,39.00
2023-01-03T03:00:02.173Z,39.00
2023-01-03T03:02:40.245Z,39.00
2023-01-03T03:05:26.068Z,39.00
2023-01-03T03:08:01.319Z,39.10
2023-01-03T03:10:58.023Z,39.10
2023-01-03T03:13:55.743Z,40.10
2023-01-03T03:16:47.966Z,40.30
2023-01-03T03:19:51.272Z,40.40
2023-01-03T03:23:09.717Z,40.40
2023-01-03T03:26:15.834Z,40.60
2023-01-03T03:28:58.657Z,40.70
2023-01-03T03:31:50.683Z,41.00
2023-01-03T03:34:30.314Z,40.80
2023-01-03T03:37:21.681Z,40.90
2023-01-03T03:40:15.336Z,41.00
2023-01-03T03:43:23.004Z,41.00
2023-01-03T03:46:30.018Z,41.10
2023-01-03T03:49:30.810Z,41.20
2023-01-03T03:52:10.919Z,41.20
2023-01-03T03:55:22.107Z,41.50
2023-01-03T03:58:05.896Z,41.50
2023-01-03T04:00:43.953Z,41.50
2023-01-03T04:03:20.430Z,41.80
2023-01-03T04:06:08.731Z,41.80
2023-01-03T04:08:43.661Z,42.00
2023-01-03T04:11:18.497Z,42.30
2023-01-03T04:13:53.357Z,42.40
2023-01-03T04:16:28.387Z,42.50
2023-01-03T04:19:04.847Z,42.60
2023-01-03T04:21:39.805Z,42.70
2023-01-03T04:24:14.709Z,42.80
2023-01-03T04:26:49.599Z,42.90
2023-01-03T04:29:24.506Z,42.90
2023-01-03T04:32:01.085Z,43.00
2023-01-03T04:34:36.198Z,43.10
2023-01-03T04:37:11.379Z,43.20
2023-01-03T04:39:46.212Z,43.40
2023-01-03T04:42:39.495Z,43.40
2023-01-03T04:45:14.441Z,43.40
2023-01-03T04:47:49.316Z,43.60
2023-01-03T04:50:24.175Z,43.70
2023-01-03T04:52:59.515Z,43.70
2023-01-03T04:55:34.379Z,44.00
2023-01-03T04:58:09.228Z,44.20
2023-01-03T05:00:44.327Z,44.30
2023-01-03T05:03:25.730Z,44.60
2023-01-03T05:06:06.440Z,44.80
2023-01-03T05:08:41.373Z,44.90
2023-01-03T05:11:16.645Z,45.20
2023-01-03T05:13:51.558Z,45.30
2023-01-03T05:16:26.605Z,45.40
2023-01-03T05:19:01.509Z,45.70
2023-01-03T05:21:54.732Z,45.60
2023-01-03T05:24:48.417Z,45.80
2023-01-03T05:27:23.549Z,46.10
2023-01-03T05:29:58.493Z,46.30
2023-01-03T05:32:33.317Z,46.70
2023-01-03T05:35:08.739Z,46.90
2023-01-03T05:37:43.574Z,47.00
2023-01-03T05:40:18.568Z,47.20
2023-01-03T05:42:53.976Z,47.20
2023-01-03T05:45:28.861Z,47.20
2023-01-03T05:48:04.503Z,47.20
2023-01-03T05:50:40.234Z,47.10
2023-01-03T05:53:16.072Z,47.10
2023-01-03T05:55:50.952Z,47.00
2023-01-03T05:58:25.867Z,46.90
2023-01-03T06:01:09.599Z,46.90
2023-01-03T06:03:46.287Z,47.00
2023-01-03T06:06:21.443Z,46.90
2023-01-03T06:08:56.386Z,46.90
2023-01-03T06:11:31.495Z,46.90
2023-01-03T06:14:06.979Z,46.90
2023-01-03T06:17:00.293Z,46.90
2023-01-03T06:19:35.324Z,47.00
2023-01-03T06:22:11.275Z,47.00
2023-01-03T06:24:47.458Z,47.10
2023-01-03T06:27:22.381Z,47.50
2023-01-03T06:29:59.563Z,47.50
2023-01-03T06:32:34.475Z,47.30
2023-01-03T06:35:09.777Z,47.20
2023-01-03T06:37:44.679Z,47.00
2023-01-03T06:40:19.591Z,47.10
2023-01-03T06:42:54.511Z,47.10
2023-01-03T06:45:47.809Z,47.10
2023-01-03T06:49:00.910Z,47.20
2023-01-03T06:51:54.759Z,47.30
2023-01-03T06:54:33.955Z,47.50
2023-01-03T06:57:08.958Z,47.70
2023-01-03T06:59:44.043Z,47.90
2023-01-03T07:02:19.157Z,48.20
2023-01-03T07:04:54.269Z,48.40
2023-01-03T07:07:29.309Z,48.60
2023-01-03T07:10:04.599Z,48.80
2023-01-03T07:12:58.000Z,49.30
2023-01-03T07:15:33.204Z,49.20
2023-01-03T07:18:08.065Z,49.20
2023-01-03T07:20:44.653Z,49.30
2023-01-03T07:23:19.501Z,49.10
2023-01-03T07:25:55.688Z,49.40
2023-01-03T07:28:31.363Z,49.60
2023-01-03T07:31:07.569Z,49.80
2023-01-03T07:33:42.584Z,50.10
2023-01-03T07:36:17.617Z,50.40
2023-01-03T07:38:53.849Z,50.50
2023-01-03T07:41:48.833Z,50.60
2023-01-03T07:44:23.710Z,50.90
2023-01-03T07:46:58.710Z,51.30
2023-01-03T07:49:33.651Z,50.60
2023-01-03T07:52:08.512Z,50.60
2023-01-03T07:54:43.427Z,50.70
2023-01-03T07:57:18.294Z,50.70
2023-01-03T07:59:53.249Z,50.60
2023-01-03T08:02:28.304Z,50.60
2023-01-03T08:05:03.532Z,50.50
2023-01-03T08:07:38.463Z,50.40
2023-01-03T08:10:31.866Z,50.30
2023-01-03T08:13:17.676Z,50.10
2023-01-03T08:15:56.012Z,50.00
2023-01-03T08:18:30.955Z,49.80
2023-01-03T08:21:07.362Z,49.80
2023-01-03T08:23:43.180Z,49.60
2023-01-03T08:26:18.824Z,49.50
2023-01-03T08:28:53.787Z,49.40
2023-01-03T08:31:34.676Z,49.30
2023-01-03T08:34:16.947Z,49.20
2023-01-03T08:37:05.000Z,49.10
2023-01-03T08:39:49.437Z,48.90
2023-01-03T08:42:25.232Z,48.80
2023-01-03T08:45:05.684Z,48.60
2023-01-03T08:47:42.061Z,48.70
2023-01-03T08:50:16.944Z,48.70
2023-01-03T08:52:52.625Z,48.80
2023-01-03T08:55:27.612Z,48.70
2023-01-03T08:58:02.552Z,48.40
2023-01-03T09:00:37.640Z,48.10
2023-01-03T09:03:12.760Z,47.90
2023-01-03T09:05:47.756Z,47.90
2023-01-03T09:08:22.653Z,47.80
2023-01-03T09:10:58.060Z,47.60
2023-01-03T09:13:33.187Z,47.40
2023-01-03T09:16:11.636Z,47.20
2023-01-03T09:18:46.611Z,47.00
2023-01-03T09:21:21.603Z,46.70
2023-01-03T09:23:56.807Z,46.50
2023-01-03T09:26:31.720Z,46.10
2023-01-03T09:29:06.677Z,45.90
2023-01-03T09:31:41.629Z,45.70
2023-01-03T09:34:16.581Z,45.60
2023-01-03T09:36:51.439Z,45.60
2023-01-03T09:39:26.369Z,45.70
2023-01-03T09:42:20.175Z,45.80
2023-01-03T09:44:55.071Z,45.80
2023-01-03T09:47:36.332Z,45.80
2023-01-03T09:53:44.118Z,45.90
2023-01-03T09:56:51.508Z,45.70
2023-01-03T10:00:02.041Z,45.90
2023-01-03T10:03:51.800Z,46.70
2023-01-03T10:06:33.346Z,46.40
2023-01-03T10:09:32.870Z,46.50
2023-01-03T10:12:49.425Z,47.00
2023-01-03T10:16:14.463Z,46.80
2023-01-03T10:19:30.039Z,47.00
2023-01-03T10:22:14.289Z,47.10
2023-01-03T10:25:20.285Z,47.20
2023-01-03T10:28:04.441Z,47.50
2023-01-03T10:30:46.496Z,47.50
2023-01-03T10:33:34.327Z,47.70
2023-01-03T10:36:09.534Z,48.00
2023-01-03T10:38:51.608Z,48.00
2023-01-03T10:41:49.097Z,48.40
2023-01-03T10:44:28.627Z,48.60
2023-01-03T10:47:16.264Z,48.70
2023-01-03T10:50:02.433Z,48.80
2023-01-03T10:52:41.713Z,49.00
2023-01-03T10:55:19.157Z,47.80
2023-01-03T10:58:00.138Z,47.70
2023-01-03T11:00:38.847Z,47.20
2023-01-03T11:03:21.987Z,45.80
2023-01-03T11:05:59.930Z,44.20
2023-01-03T11:08:48.901Z,42.40
2023-01-03T11:11:34.823Z,40.20
2023-01-03T11:14:26.471Z,39.60
2023-01-03T11:17:03.624Z,39.00
2023-01-03T11:19:38.660Z,38.10
2023-01-03T11:22:47.020Z,37.40
2023-01-03T11:26:00.143Z,36.60
2023-01-03T11:29:29.748Z,35.40
2023-01-03T11:32:40.486Z,34.80
2023-01-03T11:35:45.587Z,34.50
2023-01-03T11:39:15.617Z,34.00
2023-01-03T11:42:08.576Z,33.80
2023-01-03T11:45:40.604Z,33.30
2023-01-03T11:48:54.673Z,33.50
2023-01-03T11:52:16.204Z,33.30
2023-01-03T11:55:27.463Z,33.30
2023-01-03T11:58:30.399Z,31.80
2023-01-03T12:01:38.721Z,32.60
2023-01-03T12:04:34.174Z,32.10
2023-01-03T12:07:46.949Z,33.00
2023-01-03T12:10:26.545Z,33.70
2023-01-03T12:13:29.820Z,32.70
2023-01-03T12:16:34.856Z,32.10
2023-01-03T12:19:23.770Z,31.80
2023-01-03T12:22:22.575Z,31.10
2023-01-03T12:25:14.540Z,31.30
2023-01-03T12:27:59.586Z,32.70
2023-01-03T12:31:31.350Z,33.10
2023-01-03T12:35:10.996Z,32.50
2023-01-03T12:37:50.172Z,29.80
2023-01-03T12:40:49.583Z,30.70
2023-01-03T12:43:42.731Z,31.90
2023-01-03T12:46:22.624Z,32.60
2023-01-03T12:49:18.963Z,31.40
2023-01-03T12:51:53.861Z,31.90
2023-01-03T12:54:47.484Z,32.40
2023-01-03T12:57:48.912Z,31.00
2023-01-03T13:00:38.633Z,31.70
2023-01-03T13:03:27.631Z,32.20
2023-01-03T13:06:25.257Z,32.00
2023-01-03T13:09:04.707Z,32.00
2023-01-03T13:11:51.007Z,31.30
2023-01-03T13:14:28.936Z,31.40
2023-01-03T13:17:16.780Z,32.40
2023-01-03T13:20:28.007Z,32.30
2023-01-03T13:23:21.737Z,31.70
2023-01-03T13:26:05.623Z,31.60
2023-01-03T13:28:40.698Z,32.00
2023-01-03T13:31:18.246Z,32.40
2023-01-03T13:34:18.134Z,32.00
2023-01-03T13:37:08.780Z,32.20
2023-01-03T13:39:43.564Z,32.80
2023-01-03T13:42:33.243Z,33.70
2023-01-03T13:45:11.053Z,33.00
2023-01-03T13:47:51.778Z,33.30
2023-01-03T13:50:33.737Z,32.90
2023-01-03T13:53:11.630Z,32.90
2023-01-03T13:56:16.347Z,32.70
2023-01-03T13:58:58.402Z,32.70
2023-01-03T14:02:10.080Z,33.10
2023-01-03T14:05:22.903Z,33.10
2023-01-03T14:08:35.367Z,33.20
2023-01-03T14:11:41.013Z,33.10
2023-01-03T14:14:21.708Z,32.90
2023-01-03T14:16:58.464Z,32.80
2023-01-03T14:19:38.126Z,32.70
2023-01-03T14:22:30.716Z,32.90
2023-01-03T14:25:08.831Z,32.90
2023-01-03T14:27:43.854Z,32.90
2023-01-03T14:30:25.173Z,32.80
2023-01-03T14:33:00.865Z,33.40
2023-01-03T14:35:41.385Z,33.20
2023-01-03T14:38:32.062Z,33.10
2023-01-03T14:41:31.068Z,33.20
2023-01-03T14:44:09.987Z,33.40
2023-01-03T14:46:58.832Z,33.30
2023-01-03T14:49:47.775Z,33.50
2023-01-03T14:52:42.327Z,33.70
2023-01-03T14:55:19.827Z,33.50
2023-01-03T14:57:55.890Z,33.40
2023-01-03T15:00:35.242Z,33.50
2023-01-03T15:03:13.037Z,33.80
2023-01-03T15:05:54.708Z,33.40
2023-01-03T15:08:33.786Z,33.50
2023-01-03T15:11:10.131Z,33.50
2023-01-03T15:13:48.469Z,33.60
2023-01-03T15:16:28.788Z,33.80
2023-01-03T15:19:27.270Z,33.70
2023-01-03T15:22:22.857Z,33.60
2023-01-03T15:25:08.045Z,33.80
2023-01-03T15:27:47.099Z,33.80
2023-01-03T15:30:27.136Z,33.60
2023-01-03T15:33:32.752Z,32.40
2023-01-03T15:36:18.738Z,33.70
2023-01-03T15:38:54.382Z,33.70
2023-01-03T15:42:12.270Z,33.80
2023-01-03T15:44:47.575Z,34.10
2023-01-03T15:47:30.409Z,34.50
2023-01-03T15:50:06.807Z,34.60
2023-01-03T15:52:42.484Z,34.70
2023-01-03T15:55:17.836Z,34.70
2023-01-03T15:57:54.001Z,34.70
2023-01-03T16:00:35.337Z,34.80
2023-01-03T16:03:17.776Z,34.90
2023-01-03T16:05:53.624Z,34.90
2023-01-03T16:08:36.199Z,34.80
2023-01-03T16:11:20.357Z,34.80
2023-01-03T16:14:02.144Z,34.90
2023-01-03T16:16:42.419Z,35.10
2023-01-03T16:19:26.046Z,35.10
2023-01-03T16:24:59.323Z,35.40
2023-01-03T16:27:34.274Z,35.30
2023-01-03T16:30:12.675Z,35.30
2023-01-03T16:32:47.657Z,35.40
2023-01-03T16:35:22.636Z,35.50
2023-01-03T16:37:57.485Z,35.60
2023-01-03T16:40:32.371Z,35.50
2023-01-03T16:43:07.187Z,35.50
2023-01-03T16:45:47.203Z,35.60
2023-01-03T16:48:25.219Z,35.70
2023-01-03T16:51:00.062Z,35.90
2023-01-03T16:53:40.436Z,36.00
2023-01-03T16:56:15.285Z,36.10
2023-01-03T16:58:50.929Z,36.20
2023-01-03T17:01:26.407Z,37.10
2023-01-03T17:04:01.351Z,37.20
2023-01-03T17:06:38.494Z,37.30
2023-01-03T17:09:25.640Z,37.50
2023-01-03T17:12:00.513Z,37.70
2023-01-03T17:14:37.000Z,37.80
2023-01-03T17:17:23.198Z,37.60
2023-01-03T17:20:06.325Z,38.00
2023-01-03T17:22:48.371Z,38.10
2023-01-03T17:25:23.923Z,38.20
2023-01-03T17:27:59.980Z,38.40
2023-01-03T17:30:35.246Z,38.50
2023-01-03T17:33:15.471Z,38.70
2023-01-03T17:35:52.054Z,38.90
2023-01-03T17:38:28.407Z,39.00
2023-01-03T17:41:03.382Z,39.60
2023-01-03T17:43:38.225Z,39.20
2023-01-03T17:46:43.875Z,39.40
2023-01-03T17:49:24.487Z,39.70
2023-01-03T17:52:03.608Z,39.90
2023-01-03T17:54:40.768Z,39.90
2023-01-03T17:57:16.587Z,40.00
2023-01-03T17:59:51.652Z,40.10
2023-01-03T18:02:28.082Z,40.20
2023-01-03T18:05:16.467Z,40.70
2023-01-03T18:07:55.454Z,40.40
2023-01-03T18:10:46.484Z,40.70
2023-01-03T18:13:29.069Z,40.80
2023-01-03T18:16:04.891Z,40.90
2023-01-03T18:18:39.789Z,40.90
2023-01-03T18:21:24.235Z,40.90
2023-01-03T18:24:22.019Z,40.90
2023-01-03T18:26:57.259Z,41.00
2023-01-03T18:29:32.111Z,41.20
2023-01-03T18:32:30.151Z,41.40
2023-01-03T18:35:05.796Z,41.50
2023-01-03T18:37:41.538Z,41.70
2023-01-03T18:40:20.780Z,42.00
2023-01-03T18:43:10.095Z,42.30
2023-01-03T18:45:45.677Z,42.50
2023-01-03T18:48:22.848Z,42.70
2023-01-03T18:50:59.902Z,42.90
2023-01-03T18:53:35.590Z,43.10
2023-01-03T18:56:37.305Z,43.30
2023-01-03T18:59:22.850Z,43.40
2023-01-03T19:01:57.904Z,43.60
2023-01-03T19:04:32.872Z,43.80
2023-01-03T19:07:30.814Z,44.10
2023-01-03T19:10:20.599Z,44.20
2023-01-03T19:12:57.365Z,44.70
2023-01-03T19:15:32.333Z,44.80
2023-01-03T19:18:09.689Z,44.90
2023-01-03T19:20:44.960Z,45.20
2023-01-03T19:23:24.891Z,45.20
2023-01-03T19:26:01.321Z,45.50
2023-01-03T19:28:40.373Z,45.60
2023-01-03T19:31:15.295Z,45.80
2023-01-03T19:33:50.302Z,46.00
2023-01-03T19:36:25.267Z,46.20
2023-01-03T19:39:00.127Z,46.30
2023-01-03T19:42:03.457Z,46.60
2023-01-03T19:44:40.380Z,46.90
2023-01-03T19:47:18.760Z,47.20
2023-01-03T19:49:54.873Z,47.50
2023-01-03T19:52:29.916Z,47.60
2023-01-03T19:55:05.367Z,47.80
2023-01-03T19:57:43.382Z,48.00
2023-01-03T20:00:23.479Z,48.70
2023-01-03T20:03:06.485Z,48.90
2023-01-03T20:05:41.533Z,48.90
2023-01-03T20:08:16.357Z,48.90
2023-01-03T20:10:53.360Z,48.90
2023-01-03T20:13:28.646Z,48.90
2023-01-03T20:16:03.758Z,49.00
2023-01-03T20:18:41.478Z,49.10
2023-01-03T20:21:25.483Z,49.10
2023-01-03T20:24:02.826Z,49.20
2023-01-03T20:26:39.365Z,49.20
2023-01-03T20:29:14.251Z,49.30
2023-01-03T20:31:49.226Z,49.20
2023-01-03T20:34:24.685Z,49.20
2023-01-03T20:37:01.866Z,49.30
2023-01-03T20:39:36.871Z,49.40
2023-01-03T20:42:29.798Z,49.60
2023-01-03T20:45:05.177Z,49.70
2023-01-03T20:47:43.020Z,50.00
2023-01-03T20:50:21.891Z,49.60
2023-01-03T20:52:57.838Z,49.80
2023-01-03T20:55:33.388Z,50.10
2023-01-03T20:58:15.316Z,50.20
2023-01-03T21:00:50.286Z,50.60
2023-01-03T21:03:25.343Z,50.70
2023-01-03T21:06:00.611Z,50.80
2023-01-03T21:08:53.970Z,51.00
2023-01-03T21:11:38.983Z,51.00
2023-01-03T21:14:14.977Z,51.00
2023-01-03T21:16:49.989Z,51.00
2023-01-03T21:19:24.964Z,51.30
2023-01-03T21:22:00.153Z,51.70
2023-01-03T21:24:38.825Z,51.70
2023-01-03T21:27:14.533Z,51.80
2023-01-03T21:29:49.361Z,51.90
2023-01-03T21:32:24.318Z,52.30
2023-01-03T21:34:59.208Z,52.30
2023-01-03T21:37:34.060Z,52.40
2023-01-03T21:40:18.491Z,52.10
2023-01-03T21:43:03.680Z,51.80
2023-01-03T21:45:47.222Z,51.70
2023-01-03T21:48:22.433Z,51.80
2023-01-03T21:50:57.363Z,51.80
2023-01-03T21:53:32.316Z,52.10
2023-01-03T21:56:25.684Z,52.40
2023-01-03T21:59:00.657Z,52.70
2023-01-03T22:01:55.599Z,52.90
2023-01-03T22:04:31.397Z,52.80
2023-01-03T22:07:06.317Z,52.90
2023-01-03T22:09:59.539Z,53.00
2023-01-03T22:12:34.518Z,53.00
2023-01-03T22:15:10.207Z,53.40
2023-01-03T22:17:45.101Z,53.40
2023-01-03T22:20:23.492Z,53.80
2023-01-03T22:22:59.476Z,53.80
2023-01-03T22:25:34.467Z,55.10
2023-01-03T22:28:09.396Z,54.00
2023-01-03T22:30:44.411Z,54.10
2023-01-03T22:33:19.268Z,54.30
2023-01-03T22:35:54.117Z,54.80
2023-01-03T22:38:29.041Z,55.10
2023-01-03T22:41:15.962Z,55.30
2023-01-03T22:43:52.702Z,55.20
2023-01-03T22:46:27.726Z,55.30
2023-01-03T22:49:02.824Z,55.30
2023-01-03T22:51:37.710Z,55.50
2023-01-03T22:54:12.695Z,55.80
2023-01-03T22:56:47.736Z,56.10
2023-01-03T22:59:23.522Z,56.30
2023-01-03T23:01:58.655Z,56.40
2023-01-03T23:04:33.929Z,57.60
2023-01-03T23:07:09.833Z,57.80
2023-01-03T23:09:44.796Z,57.90
2023-01-03T23:12:38.226Z,58.20
2023-01-03T23:15:13.322Z,58.90
2023-01-03T23:17:57.039Z,59.50
2023-01-03T23:20:34.965Z,59.80
2023-01-03T23:23:09.907Z,60.20
2023-01-03T23:25:44.846Z,60.60
2023-01-03T23:28:19.686Z,61.20
2023-01-03T23:30:54.557Z,61.20
2023-01-03T23:33:29.447Z,61.40
2023-01-03T23:36:06.969Z,61.40
2023-01-03T23:38:41.832Z,61.50
2023-01-03T23:41:17.798Z,61.20
2023-01-03T23:43:53.431Z,61.30
2023-01-03T23:46:28.322Z,61.10
2023-01-03T23:49:03.291Z,61.20
2023-01-03T23:51:38.158Z,61.10
2023-01-03T23:54:13.016Z,61.20
2023-01-03T23:56:47.849Z,61.00
2023-01-03T23:59:22.670Z,61.50
